LKCR weather

Chrudim Airport
Chrudim, Pardubice Region, Czechia

Public forecast

Using degrees Celsius for public forecast. Weather courtesy of forecast.io.

Closest aviation weather report (METAR) to Chrudim Airport

Closest report is Pardubice Airport, 4.9 nm (9.1 km) NNW. Retrieved 2019/10/16 05:00 UTC (42 minutes ago):

LKPD 160500Z 25009KT 9999 SCT025 OVC040 14/12 Q1010 NOSIG RMK BLU BLU

Closest aviation forecast (TAF) to Chrudim Airport

Closest forecast is Pardubice Airport, 4.9 nm (9.1 km) NNW. Retrieved 2019-10-16 00:06 UTC (6 hours ago):

TAF LKPD 152300Z 1600/1700 12004KT CAVOK BECMG 1602/1604 25010KT BKN025 TEMPO 1607/1613 25014KT 8000 RA BKN017 OVC035 BECMG 1614/1616 CAVOK